createdAt,value
2023-05-01T00:00:09.140Z,1016.06
2023-05-01T00:01:09.200Z,1016.11
2023-05-01T00:02:09.104Z,1016.07
2023-05-01T00:03:09.241Z,1016.08
2023-05-01T00:04:09.249Z,1016.10
2023-05-01T00:05:09.210Z,1016.03
2023-05-01T00:06:09.129Z,1016.09
2023-05-01T00:07:09.070Z,1016.06
2023-05-01T00:08:09.098Z,1016.08
2023-05-01T00:09:09.034Z,1016.04
2023-05-01T00:10:09.078Z,1016.07
2023-05-01T00:11:09.016Z,1016.05
2023-05-01T00:12:08.985Z,1016.11
2023-05-01T00:13:08.977Z,1016.12
2023-05-01T00:14:09.004Z,1016.09
2023-05-01T00:15:08.992Z,1016.06
2023-05-01T00:16:09.038Z,1016.10
2023-05-01T00:17:08.936Z,1016.05
2023-05-01T00:18:08.964Z,1016.07
2023-05-01T00:19:08.914Z,1016.06
2023-05-01T00:20:08.937Z,1016.04
2023-05-01T00:21:15.827Z,1016.03
2023-05-01T00:22:08.885Z,1016.04
2023-05-01T00:23:08.849Z,1016.05
2023-05-01T00:24:08.851Z,1015.98
2023-05-01T00:25:08.878Z,1016.02
2023-05-01T00:26:08.862Z,1016.01
2023-05-01T00:27:08.811Z,1015.95
2023-05-01T00:28:08.781Z,1016.00
2023-05-01T00:29:08.772Z,1016.04
2023-05-01T00:30:08.776Z,1016.06
2023-05-01T00:31:08.759Z,1015.98
2023-05-01T00:32:08.828Z,1016.02
2023-05-01T00:33:08.794Z,1016.03
2023-05-01T00:34:08.719Z,1016.05
2023-05-01T00:35:08.767Z,1016.02
2023-05-01T00:36:08.680Z,1016.05
2023-05-01T00:37:08.704Z,1015.97
2023-05-01T00:38:08.663Z,1015.96
2023-05-01T00:39:08.660Z,1015.97
2023-05-01T00:40:08.659Z,1016.01
2023-05-01T00:41:08.618Z,1015.98
2023-05-01T00:42:08.600Z,1015.93
2023-05-01T00:43:08.627Z,1015.96
2023-05-01T00:44:08.588Z,1015.95
2023-05-01T00:45:08.577Z,1015.93
2023-05-01T00:46:08.622Z,1015.95
2023-05-01T00:47:08.570Z,1015.94
2023-05-01T00:48:08.600Z,1015.96
2023-05-01T00:49:08.577Z,1015.96
2023-05-01T00:50:08.529Z,1015.93
2023-05-01T00:51:08.514Z,1015.91
2023-05-01T00:52:08.487Z,1015.88
2023-05-01T00:53:08.490Z,1015.90
2023-05-01T00:54:08.460Z,1015.87
2023-05-01T00:55:08.470Z,1015.88
2023-05-01T00:56:08.476Z,1015.86
2023-05-01T00:57:08.433Z,1015.87
2023-05-01T00:58:08.391Z,1015.84
2023-05-01T00:59:08.407Z,1015.87
2023-05-01T01:00:08.379Z,1015.88
2023-05-01T01:01:08.435Z,1015.85
2023-05-01T01:02:08.411Z,1015.85
2023-05-01T01:03:08.410Z,1015.84
2023-05-01T01:04:08.343Z,1015.82
2023-05-01T01:05:08.345Z,1015.85
2023-05-01T01:06:08.381Z,1015.77
2023-05-01T01:07:08.324Z,1015.82
2023-05-01T01:08:08.303Z,1015.84
2023-05-01T01:09:08.256Z,1015.84
2023-05-01T01:10:08.257Z,1015.85
2023-05-01T01:11:08.261Z,1015.86
2023-05-01T01:12:08.229Z,1015.88
2023-05-01T01:13:08.239Z,1015.87
2023-05-01T01:14:08.224Z,1015.76
2023-05-01T01:15:08.192Z,1015.86
2023-05-01T01:16:08.200Z,1015.85
2023-05-01T01:17:08.299Z,1015.84
2023-05-01T01:18:08.203Z,1015.80
2023-05-01T01:19:08.177Z,1015.83
2023-05-01T01:20:08.141Z,1015.78
2023-05-01T01:21:08.138Z,1015.75
2023-05-01T01:22:08.109Z,1015.79
2023-05-01T01:23:08.120Z,1015.76
2023-05-01T01:24:08.073Z,1015.74
2023-05-01T01:25:08.058Z,1015.76
2023-05-01T01:26:08.081Z,1015.76
2023-05-01T01:27:08.074Z,1015.73
2023-05-01T01:28:08.044Z,1015.73
2023-05-01T01:29:07.998Z,1015.68
2023-05-01T01:30:08.025Z,1015.71
2023-05-01T01:31:08.057Z,1015.69
2023-05-01T01:32:07.970Z,1015.67
2023-05-01T01:33:07.999Z,1015.65
2023-05-01T01:34:07.946Z,1015.63
2023-05-01T01:35:07.924Z,1015.66
2023-05-01T01:36:07.928Z,1015.64
2023-05-01T01:37:07.899Z,1015.64
2023-05-01T01:38:07.958Z,1015.63
2023-05-01T01:39:07.889Z,1015.63
2023-05-01T01:40:07.872Z,1015.57
2023-05-01T01:41:07.870Z,1015.60
2023-05-01T01:42:07.859Z,1015.59
2023-05-01T01:43:07.846Z,1015.57
2023-05-01T01:44:07.813Z,1015.58
2023-05-01T01:45:07.800Z,1015.57
2023-05-01T01:46:07.886Z,1015.59
2023-05-01T01:47:07.807Z,1015.61
2023-05-01T01:48:07.850Z,1015.58
2023-05-01T01:49:07.777Z,1015.55
2023-05-01T01:50:07.750Z,1015.51
2023-05-01T01:51:07.784Z,1015.53
2023-05-01T01:52:07.736Z,1015.58
2023-05-01T01:53:07.711Z,1015.54
2023-05-01T01:54:07.697Z,1015.51
2023-05-01T01:55:07.699Z,1015.52
2023-05-01T01:56:07.701Z,1015.46
2023-05-01T01:57:07.698Z,1015.45
2023-05-01T01:58:07.637Z,1015.50
2023-05-01T01:59:07.640Z,1015.51
2023-05-01T02:00:07.636Z,1015.49
2023-05-01T02:01:07.624Z,1015.42
2023-05-01T02:02:07.645Z,1015.45
2023-05-01T02:03:07.755Z,1015.42
2023-05-01T02:04:07.639Z,1015.41
2023-05-01T02:05:07.567Z,1015.47
2023-05-01T02:06:07.716Z,1015.47
2023-05-01T02:07:07.555Z,1015.45
2023-05-01T02:08:07.520Z,1015.48
2023-05-01T02:09:07.548Z,1015.41
2023-05-01T02:10:07.525Z,1015.49
2023-05-01T02:11:07.513Z,1015.46
2023-05-01T02:12:07.477Z,1015.48
2023-05-01T02:13:07.471Z,1015.41
2023-05-01T02:14:07.451Z,1015.47
2023-05-01T02:15:07.442Z,1015.48
2023-05-01T02:16:07.452Z,1015.45
2023-05-01T02:17:07.421Z,1015.48
2023-05-01T02:18:07.466Z,1015.46
2023-05-01T02:19:07.384Z,1015.41
2023-05-01T02:20:07.392Z,1015.45
2023-05-01T02:21:07.365Z,1015.40
2023-05-01T02:22:07.339Z,1015.40
2023-05-01T02:23:07.369Z,1015.41
2023-05-01T02:24:07.318Z,1015.36
2023-05-01T02:25:07.304Z,1015.37
2023-05-01T02:26:07.329Z,1015.39
2023-05-01T02:27:07.294Z,1015.39
2023-05-01T02:28:07.283Z,1015.32
2023-05-01T02:29:07.283Z,1015.37
2023-05-01T02:30:07.282Z,1015.26
2023-05-01T02:31:07.323Z,1015.29
2023-05-01T02:32:07.322Z,1015.29
2023-05-01T02:33:07.270Z,1015.27
2023-05-01T02:34:07.190Z,1015.25
2023-05-01T02:35:07.172Z,1015.25
2023-05-01T02:36:07.189Z,1015.25
2023-05-01T02:37:07.189Z,1015.24
2023-05-01T02:38:07.157Z,1015.23
2023-05-01T02:39:07.158Z,1015.27
2023-05-01T02:40:07.146Z,1015.24
2023-05-01T02:41:07.139Z,1015.24
2023-05-01T02:42:07.124Z,1015.26
2023-05-01T02:43:07.080Z,1015.20
2023-05-01T02:44:07.089Z,1015.27
2023-05-01T02:45:07.063Z,1015.21
2023-05-01T02:46:07.097Z,1015.19
2023-05-01T02:47:07.083Z,1015.17
2023-05-01T02:48:07.084Z,1015.17
2023-05-01T02:49:07.021Z,1015.15
2023-05-01T02:50:07.077Z,1015.15
2023-05-01T02:51:07.094Z,1015.14
2023-05-01T02:52:06.994Z,1015.18
2023-05-01T02:53:06.966Z,1015.14
2023-05-01T02:54:06.946Z,1015.17
2023-05-01T02:55:06.987Z,1015.15
2023-05-01T02:56:06.927Z,1015.11
2023-05-01T02:57:06.953Z,1015.10
2023-05-01T02:58:06.916Z,1015.09
2023-05-01T02:59:06.930Z,1015.09
2023-05-01T03:00:06.885Z,1015.06
2023-05-01T03:01:06.889Z,1014.97
2023-05-01T03:02:06.868Z,1015.02
2023-05-01T03:03:14.528Z,1014.98
2023-05-01T03:04:06.859Z,1015.02
2023-05-01T03:05:06.791Z,1015.01
2023-05-01T03:06:06.811Z,1014.98
2023-05-01T03:07:06.775Z,1014.91
2023-05-01T03:08:06.774Z,1014.94
2023-05-01T03:09:06.725Z,1014.97
2023-05-01T03:10:06.745Z,1014.91
2023-05-01T03:11:06.729Z,1014.92
2023-05-01T03:12:06.725Z,1014.86
2023-05-01T03:13:06.696Z,1014.86
2023-05-01T03:14:06.669Z,1014.85
2023-05-01T03:15:06.667Z,1014.87
2023-05-01T03:16:06.690Z,1014.80
2023-05-01T03:17:06.642Z,1014.87
2023-05-01T03:18:06.698Z,1014.85
2023-05-01T03:19:13.645Z,1014.81
2023-05-01T03:20:06.620Z,1014.78
2023-05-01T03:21:06.595Z,1014.79
2023-05-01T03:22:06.578Z,1014.73
2023-05-01T03:23:06.565Z,1014.77
2023-05-01T03:24:06.560Z,1014.73
2023-05-01T03:25:06.562Z,1014.67
2023-05-01T03:26:06.543Z,1014.68
2023-05-01T03:27:06.532Z,1014.68
2023-05-01T03:28:06.574Z,1014.64
2023-05-01T03:29:06.505Z,1014.61
2023-05-01T03:30:06.495Z,1014.59
2023-05-01T03:31:06.482Z,1014.62
2023-05-01T03:32:06.509Z,1014.55
2023-05-01T03:33:06.471Z,1014.52
2023-05-01T03:34:06.444Z,1014.54
2023-05-01T03:35:06.445Z,1014.53
2023-05-01T03:36:06.393Z,1014.59
2023-05-01T03:37:06.391Z,1014.56
2023-05-01T03:38:06.383Z,1014.59
2023-05-01T03:39:06.365Z,1014.59
2023-05-01T03:40:06.356Z,1014.58
2023-05-01T03:41:06.362Z,1014.60
2023-05-01T03:42:06.346Z,1014.60
2023-05-01T03:43:06.339Z,1014.59
2023-05-01T03:44:06.355Z,1014.57
2023-05-01T03:45:06.322Z,1014.60
2023-05-01T03:46:06.349Z,1014.60
2023-05-01T03:47:06.238Z,1014.55
2023-05-01T03:48:06.319Z,1014.58
2023-05-01T03:49:06.237Z,1014.62
2023-05-01T03:50:06.256Z,1014.58
2023-05-01T03:51:06.216Z,1014.58
2023-05-01T03:52:06.251Z,1014.66
2023-05-01T03:53:06.187Z,1014.63
2023-05-01T03:54:06.166Z,1014.69
2023-05-01T03:55:06.155Z,1014.66
2023-05-01T03:56:06.142Z,1014.65
2023-05-01T03:57:06.126Z,1014.61
2023-05-01T03:58:06.150Z,1014.60
2023-05-01T03:59:06.101Z,1014.66
2023-05-01T04:00:06.122Z,1014.66
2023-05-01T04:01:06.076Z,1014.60
2023-05-01T04:02:06.058Z,1014.58
2023-05-01T04:03:06.282Z,1014.58
2023-05-01T04:04:06.154Z,1014.61
2023-05-01T04:05:06.052Z,1014.55
2023-05-01T04:06:06.031Z,1014.64
2023-05-01T04:07:06.006Z,1014.64
2023-05-01T04:08:05.983Z,1014.66
2023-05-01T04:09:05.982Z,1014.59
2023-05-01T04:10:05.983Z,1014.63
2023-05-01T04:11:05.939Z,1014.62
2023-05-01T04:12:05.962Z,1014.62
2023-05-01T04:13:05.917Z,1014.61
2023-05-01T04:14:05.910Z,1014.59
2023-05-01T04:15:05.877Z,1014.60
2023-05-01T04:16:05.971Z,1014.56
2023-05-01T04:17:05.846Z,1014.53
2023-05-01T04:18:05.928Z,1014.57
2023-05-01T04:19:05.860Z,1014.56
2023-05-01T04:20:05.841Z,1014.55
2023-05-01T04:21:05.874Z,1014.51
2023-05-01T04:22:05.825Z,1014.55
2023-05-01T04:23:05.793Z,1014.48
2023-05-01T04:24:05.772Z,1014.59
2023-05-01T04:25:05.768Z,1014.53
2023-05-01T04:26:05.753Z,1014.56
2023-05-01T04:27:05.781Z,1014.57
2023-05-01T04:28:05.723Z,1014.62
2023-05-01T04:29:05.728Z,1014.58
2023-05-01T04:30:05.712Z,1014.50
2023-05-01T04:31:05.732Z,1014.54
2023-05-01T04:32:05.792Z,1014.51
2023-05-01T04:33:05.719Z,1014.54
2023-05-01T04:34:05.649Z,1014.52
2023-05-01T04:35:05.653Z,1014.51
2023-05-01T04:36:05.622Z,1014.51
2023-05-01T04:37:05.619Z,1014.55
2023-05-01T04:38:05.613Z,1014.52
2023-05-01T04:39:05.589Z,1014.49
2023-05-01T04:40:05.603Z,1014.47
2023-05-01T04:41:05.542Z,1014.46
2023-05-01T04:42:05.545Z,1014.47
2023-05-01T04:43:05.538Z,1014.43
2023-05-01T04:44:05.525Z,1014.49
2023-05-01T04:45:05.548Z,1014.42
2023-05-01T04:46:05.538Z,1014.43
2023-05-01T04:47:05.572Z,1014.42
2023-05-01T04:48:05.511Z,1014.42
2023-05-01T04:49:05.449Z,1014.37
2023-05-01T04:50:05.440Z,1014.37
2023-05-01T04:51:05.622Z,1014.41
2023-05-01T04:52:05.438Z,1014.35
2023-05-01T04:53:05.452Z,1014.34
2023-05-01T04:54:05.401Z,1014.40
2023-05-01T04:55:05.394Z,1014.41
2023-05-01T04:56:05.369Z,1014.31
2023-05-01T04:57:05.365Z,1014.35
2023-05-01T04:58:05.398Z,1014.32
2023-05-01T04:59:05.339Z,1014.35
2023-05-01T05:00:05.320Z,1014.36
2023-05-01T05:01:05.329Z,1014.35
2023-05-01T05:02:05.457Z,1014.31
2023-05-01T05:03:05.391Z,1014.33
2023-05-01T05:04:05.428Z,1014.33
2023-05-01T05:05:05.264Z,1014.34
2023-05-01T05:06:05.295Z,1014.38
2023-05-01T05:07:05.223Z,1014.36
2023-05-01T05:08:05.234Z,1014.38
2023-05-01T05:09:05.257Z,1014.36
2023-05-01T05:10:05.197Z,1014.37
2023-05-01T05:11:05.151Z,1014.28
2023-05-01T05:12:05.172Z,1014.31
2023-05-01T05:13:05.144Z,1014.27
2023-05-01T05:14:05.135Z,1014.34
2023-05-01T05:15:05.172Z,1014.30
2023-05-01T05:16:05.245Z,1014.31
2023-05-01T05:17:05.191Z,1014.28
2023-05-01T05:18:05.146Z,1014.28
2023-05-01T05:19:05.062Z,1014.21
2023-05-01T05:20:05.124Z,1014.24
2023-05-01T05:21:05.067Z,1014.20
2023-05-01T05:22:05.018Z,1014.20
2023-05-01T05:23:05.002Z,1014.25
2023-05-01T05:24:05.022Z,1014.19
2023-05-01T05:25:04.988Z,1014.13
2023-05-01T05:26:04.999Z,1014.14
2023-05-01T05:27:04.962Z,1014.14
2023-05-01T05:28:04.970Z,1014.13
2023-05-01T05:29:05.008Z,1014.16
2023-05-01T05:30:04.921Z,1014.15
2023-05-01T05:31:04.915Z,1014.10
2023-05-01T05:32:05.014Z,1014.15
2023-05-01T05:33:04.931Z,1014.11
2023-05-01T05:34:04.880Z,1014.10
2023-05-01T05:35:04.875Z,1014.10
2023-05-01T05:36:04.863Z,1014.06
2023-05-01T05:37:04.838Z,1014.12
2023-05-01T05:38:04.855Z,1014.03
2023-05-01T05:39:04.816Z,1014.10
2023-05-01T05:40:04.833Z,1014.08
2023-05-01T05:41:04.790Z,1014.07
2023-05-01T05:42:04.824Z,1014.04
2023-05-01T05:43:04.757Z,1014.03
2023-05-01T05:44:04.757Z,1014.02
2023-05-01T05:45:04.749Z,1013.98
2023-05-01T05:46:04.810Z,1013.99
2023-05-01T05:47:04.746Z,1014.00
2023-05-01T05:48:04.763Z,1013.96
2023-05-01T05:49:04.679Z,1013.98
2023-05-01T05:50:04.692Z,1013.92
2023-05-01T05:51:04.677Z,1013.95
2023-05-01T05:52:04.648Z,1013.96
2023-05-01T05:53:04.687Z,1013.92
2023-05-01T05:54:04.619Z,1013.90
2023-05-01T05:55:04.590Z,1013.94
2023-05-01T05:56:04.614Z,1013.95
2023-05-01T05:57:04.606Z,1013.95
2023-05-01T05:58:04.606Z,1013.96
2023-05-01T05:59:04.686Z,1013.85
2023-05-01T06:00:04.534Z,1013.89
2023-05-01T06:01:04.598Z,1013.91
2023-05-01T06:02:04.583Z,1013.93
2023-05-01T06:03:04.649Z,1013.93
2023-05-01T06:04:04.486Z,1013.96
2023-05-01T06:05:04.559Z,1013.84
2023-05-01T06:06:04.627Z,1013.86
2023-05-01T06:07:04.561Z,1013.85
2023-05-01T06:08:04.426Z,1013.85
2023-05-01T06:09:04.429Z,1013.86
2023-05-01T06:10:04.418Z,1013.89
2023-05-01T06:11:04.452Z,1013.91
2023-05-01T06:12:04.438Z,1013.91
2023-05-01T06:13:08.620Z,1013.88
2023-05-01T06:14:05.368Z,1013.86
2023-05-01T06:15:04.380Z,1013.85
2023-05-01T06:16:05.178Z,1013.85
2023-05-01T06:17:04.416Z,1013.89
2023-05-01T06:18:04.358Z,1013.84
2023-05-01T06:19:04.319Z,1013.83
2023-05-01T06:20:04.368Z,1013.80
2023-05-01T06:21:04.255Z,1013.84
2023-05-01T06:22:04.285Z,1013.85
2023-05-01T06:23:04.279Z,1013.78
2023-05-01T06:24:04.280Z,1013.81
2023-05-01T06:25:04.232Z,1013.81
2023-05-01T06:26:04.231Z,1013.78
2023-05-01T06:27:04.202Z,1013.82
2023-05-01T06:28:04.206Z,1013.83
2023-05-01T06:29:04.188Z,1013.81
2023-05-01T06:30:04.187Z,1013.83
2023-05-01T06:31:04.192Z,1013.80
2023-05-01T06:32:04.145Z,1013.81
2023-05-01T06:33:04.150Z,1013.76
2023-05-01T06:34:04.115Z,1013.77
2023-05-01T06:35:04.188Z,1013.81
2023-05-01T06:36:04.095Z,1013.74
2023-05-01T06:37:04.094Z,1013.73
2023-05-01T06:38:04.080Z,1013.76
2023-05-01T06:39:04.106Z,1013.72
2023-05-01T06:40:04.044Z,1013.72
2023-05-01T06:41:04.025Z,1013.64
2023-05-01T06:42:04.037Z,1013.66
2023-05-01T06:43:04.054Z,1013.68
2023-05-01T06:44:03.995Z,1013.66
2023-05-01T06:45:03.969Z,1013.67
2023-05-01T06:46:03.956Z,1013.63
2023-05-01T06:47:04.033Z,1013.63
2023-05-01T06:48:03.962Z,1013.61
2023-05-01T06:49:03.949Z,1013.70
2023-05-01T06:50:05.554Z,1013.66
2023-05-01T06:51:03.886Z,1013.65
2023-05-01T06:52:03.884Z,1013.62
2023-05-01T06:53:03.858Z,1013.63
2023-05-01T06:54:03.863Z,1013.66
2023-05-01T06:55:03.826Z,1013.65
2023-05-01T06:56:03.820Z,1013.64
2023-05-01T06:57:03.822Z,1013.67
2023-05-01T06:58:12.683Z,1013.64
2023-05-01T06:59:04.794Z,1013.63
2023-05-01T07:00:03.766Z,1013.58
2023-05-01T07:01:03.781Z,1013.60
2023-05-01T07:02:03.824Z,1013.58
2023-05-01T07:03:03.763Z,1013.62
2023-05-01T07:04:03.720Z,1013.58
2023-05-01T07:05:03.703Z,1013.58
2023-05-01T07:06:03.739Z,1013.59
2023-05-01T07:07:03.669Z,1013.61
2023-05-01T07:08:03.689Z,1013.60
2023-05-01T07:09:03.659Z,1013.58
2023-05-01T07:10:03.627Z,1013.64
2023-05-01T07:11:03.641Z,1013.59
2023-05-01T07:12:03.644Z,1013.53
2023-05-01T07:13:03.598Z,1013.49
2023-05-01T07:14:03.610Z,1013.56
2023-05-01T07:15:03.599Z,1013.55
2023-05-01T07:16:03.579Z,1013.51
2023-05-01T07:17:03.584Z,1013.54
2023-05-01T07:18:03.619Z,1013.56
2023-05-01T07:19:03.581Z,1013.53
2023-05-01T07:20:03.553Z,1013.55
2023-05-01T07:21:03.505Z,1013.57
2023-05-01T07:22:03.477Z,1013.61
2023-05-01T07:23:04.658Z,1013.57
2023-05-01T07:24:03.483Z,1013.52
2023-05-01T07:25:03.462Z,1013.52
2023-05-01T07:26:03.442Z,1013.51
2023-05-01T07:27:03.433Z,1013.54
2023-05-01T07:28:03.413Z,1013.54
2023-05-01T07:29:03.406Z,1013.52
2023-05-01T07:30:03.386Z,1013.50
2023-05-01T07:31:03.380Z,1013.46
2023-05-01T07:32:03.406Z,1013.47
2023-05-01T07:33:03.387Z,1013.40
2023-05-01T07:34:03.339Z,1013.41
2023-05-01T07:35:03.305Z,1013.44
2023-05-01T07:36:03.311Z,1013.41
2023-05-01T07:37:03.313Z,1013.34
2023-05-01T07:38:03.305Z,1013.35
2023-05-01T07:39:03.278Z,1013.39
2023-05-01T07:40:03.260Z,1013.37
2023-05-01T07:41:03.269Z,1013.32
2023-05-01T07:42:03.282Z,1013.29
2023-05-01T07:43:03.220Z,1013.23
2023-05-01T07:44:03.212Z,1013.26
2023-05-01T07:45:03.204Z,1013.24
2023-05-01T07:46:03.221Z,1013.26
2023-05-01T07:47:03.173Z,1013.24
2023-05-01T07:48:03.230Z,1013.24
2023-05-01T07:49:03.150Z,1013.21
2023-05-01T07:50:03.124Z,1013.13
2023-05-01T07:51:03.108Z,1013.17
2023-05-01T07:52:03.086Z,1013.17
2023-05-01T07:53:03.100Z,1013.17
2023-05-01T07:54:03.073Z,1013.18
2023-05-01T07:55:03.067Z,1013.15
2023-05-01T07:56:03.063Z,1013.09
2023-05-01T07:57:03.043Z,1013.09
2023-05-01T07:58:03.018Z,1013.09
2023-05-01T07:59:03.013Z,1013.09
2023-05-01T08:00:03.007Z,1013.08
2023-05-01T08:01:03.008Z,1013.05
2023-05-01T08:02:02.994Z,1013.01
2023-05-01T08:03:03.136Z,1013.03
2023-05-01T08:04:03.022Z,1013.02
2023-05-01T08:05:03.035Z,1013.04
2023-05-01T08:06:03.090Z,1013.03
2023-05-01T08:07:02.921Z,1013.00
2023-05-01T08:08:02.880Z,1012.95
2023-05-01T08:09:02.864Z,1012.99
2023-05-01T08:10:03.159Z,1012.95
2023-05-01T08:11:02.864Z,1012.94
2023-05-01T08:12:02.823Z,1012.96
2023-05-01T08:13:02.831Z,1012.97
2023-05-01T08:14:02.812Z,1012.93
2023-05-01T08:15:02.843Z,1012.93
2023-05-01T08:16:02.874Z,1012.89
2023-05-01T08:17:02.762Z,1012.87
2023-05-01T08:18:02.820Z,1012.89
2023-05-01T08:19:02.775Z,1012.88
2023-05-01T08:20:02.744Z,1012.88
2023-05-01T08:21:02.713Z,1012.88
2023-05-01T08:22:02.710Z,1012.86
2023-05-01T08:23:02.699Z,1012.80
2023-05-01T08:24:02.698Z,1012.80
2023-05-01T08:25:02.674Z,1012.84
2023-05-01T08:26:02.679Z,1012.88
2023-05-01T08:27:02.653Z,1012.90
2023-05-01T08:28:02.634Z,1012.86
2023-05-01T08:29:02.668Z,1012.82
2023-05-01T08:30:02.603Z,1012.85
2023-05-01T08:31:02.631Z,1012.84
2023-05-01T08:32:02.626Z,1012.85
2023-05-01T08:33:02.636Z,1012.81
2023-05-01T08:34:02.568Z,1012.86
2023-05-01T08:35:02.556Z,1012.82
2023-05-01T08:36:02.551Z,1012.82
2023-05-01T08:37:02.511Z,1012.82
2023-05-01T08:38:02.516Z,1012.78
2023-05-01T08:39:02.495Z,1012.81
2023-05-01T08:40:02.478Z,1012.79
2023-05-01T08:41:02.474Z,1012.75
2023-05-01T08:42:02.453Z,1012.76
2023-05-01T08:43:02.470Z,1012.75
2023-05-01T08:44:02.425Z,1012.76
2023-05-01T08:45:02.422Z,1012.79
2023-05-01T08:46:02.418Z,1012.68
2023-05-01T08:47:02.425Z,1012.74
2023-05-01T08:48:02.416Z,1012.67
2023-05-01T08:49:02.344Z,1012.70
2023-05-01T08:50:02.347Z,1012.74
2023-05-01T08:51:02.333Z,1012.73
2023-05-01T08:52:02.327Z,1012.70
2023-05-01T08:53:02.319Z,1012.70
2023-05-01T08:54:02.288Z,1012.69
2023-05-01T08:55:02.267Z,1012.63
2023-05-01T08:56:02.273Z,1012.56
2023-05-01T08:57:02.261Z,1012.64
2023-05-01T08:58:02.242Z,1012.58
2023-05-01T08:59:02.222Z,1012.59
2023-05-01T09:00:02.249Z,1012.60
2023-05-01T09:01:02.197Z,1012.47
2023-05-01T09:02:02.303Z,1012.51
2023-05-01T09:03:02.308Z,1012.47
2023-05-01T09:04:02.352Z,1012.43
2023-05-01T09:05:02.246Z,1012.44
2023-05-01T09:06:02.973Z,1012.43
2023-05-01T09:07:02.168Z,1012.43
2023-05-01T09:08:02.249Z,1012.47
2023-05-01T09:09:02.096Z,1012.49
2023-05-01T09:10:02.137Z,1012.49
2023-05-01T09:11:02.058Z,1012.43
2023-05-01T09:12:02.055Z,1012.46
2023-05-01T09:13:02.072Z,1012.38
2023-05-01T09:14:02.020Z,1012.42
2023-05-01T09:15:02.079Z,1012.40
2023-05-01T09:16:02.027Z,1012.35
2023-05-01T09:17:02.004Z,1012.32
2023-05-01T09:18:03.784Z,1012.27
2023-05-01T09:20:12.660Z,1012.28
2023-05-01T09:21:12.093Z,1012.25
2023-05-01T09:22:12.078Z,1012.23
2023-05-01T09:23:12.065Z,1012.22
2023-05-01T09:24:12.044Z,1012.21
2023-05-01T09:25:12.031Z,1012.23
2023-05-01T09:26:12.020Z,1012.21
2023-05-01T09:27:12.032Z,1012.18
2023-05-01T09:28:12.004Z,1012.13
2023-05-01T09:29:12.399Z,1012.16
2023-05-01T09:30:12.000Z,1012.15
2023-05-01T09:31:11.993Z,1012.11
2023-05-01T09:32:12.047Z,1012.05
2023-05-01T09:33:12.176Z,1012.06
2023-05-01T09:34:11.957Z,1012.06
2023-05-01T09:35:11.931Z,1012.07
2023-05-01T09:36:11.907Z,1012.05
2023-05-01T09:37:11.904Z,1011.96
2023-05-01T09:38:11.891Z,1011.98
2023-05-01T09:39:11.854Z,1011.93
2023-05-01T09:40:11.850Z,1011.96
2023-05-01T09:41:11.864Z,1011.94
2023-05-01T09:42:11.812Z,1011.88
2023-05-01T09:43:11.950Z,1011.89
2023-05-01T09:44:11.782Z,1011.88
2023-05-01T09:45:11.771Z,1011.83
2023-05-01T09:46:11.984Z,1011.85
2023-05-01T09:47:11.803Z,1011.88
2023-05-01T09:48:11.969Z,1011.81
2023-05-01T09:49:11.722Z,1011.83
2023-05-01T09:50:11.720Z,1011.79
2023-05-01T09:51:11.709Z,1011.75
2023-05-01T09:52:11.729Z,1011.77
2023-05-01T09:53:11.667Z,1011.73
2023-05-01T09:54:11.667Z,1011.68
2023-05-01T09:55:11.651Z,1011.65
2023-05-01T09:56:11.631Z,1011.61
2023-05-01T09:57:11.697Z,1011.63
2023-05-01T09:58:11.627Z,1011.56
2023-05-01T09:59:11.593Z,1011.67
2023-05-01T10:00:11.568Z,1011.66
2023-05-01T10:01:11.619Z,1011.60
2023-05-01T10:02:11.765Z,1011.62
2023-05-01T10:03:11.686Z,1011.60
2023-05-01T10:04:11.595Z,1011.64
2023-05-01T10:05:11.517Z,1011.59
2023-05-01T10:06:11.579Z,1011.57
2023-05-01T10:07:11.498Z,1011.63
2023-05-01T10:08:11.531Z,1011.65
2023-05-01T10:09:11.465Z,1011.67
2023-05-01T10:10:11.451Z,1011.61
2023-05-01T10:11:11.442Z,1011.61
2023-05-01T10:12:11.444Z,1011.61
2023-05-01T10:13:11.394Z,1011.51
2023-05-01T10:14:11.439Z,1011.59
2023-05-01T10:15:24.069Z,1011.55
2023-05-01T10:16:12.382Z,1011.55
2023-05-01T10:17:11.450Z,1011.51
2023-05-01T10:18:11.400Z,1011.48
2023-05-01T10:19:11.363Z,1011.46
2023-05-01T10:20:11.352Z,1011.49
2023-05-01T10:21:11.303Z,1011.47
2023-05-01T10:22:11.301Z,1011.39
2023-05-01T10:23:11.282Z,1011.41
2023-05-01T10:24:11.345Z,1011.42
2023-05-01T10:25:11.254Z,1011.42
2023-05-01T10:26:11.225Z,1011.41
2023-05-01T10:27:11.250Z,1011.39
2023-05-01T10:28:11.202Z,1011.39
2023-05-01T10:29:11.213Z,1011.32
2023-05-01T10:30:11.332Z,1011.36
2023-05-01T10:31:11.222Z,1011.34
2023-05-01T10:32:11.161Z,1011.31
2023-05-01T10:33:11.152Z,1011.27
2023-05-01T10:34:11.133Z,1011.26
2023-05-01T10:35:11.125Z,1011.27
2023-05-01T10:36:11.112Z,1011.20
2023-05-01T10:37:12.058Z,1011.19
2023-05-01T10:38:11.112Z,1011.11
2023-05-01T10:39:11.063Z,1011.09
2023-05-01T10:40:11.058Z,1011.13
2023-05-01T10:41:11.091Z,1011.16
2023-05-01T10:42:11.331Z,1011.10
2023-05-01T10:43:11.000Z,1011.07
2023-05-01T10:44:10.995Z,1011.06
2023-05-01T10:45:10.985Z,1011.10
2023-05-01T10:46:10.967Z,1011.07
2023-05-01T10:47:10.961Z,1011.12
2023-05-01T10:48:11.006Z,1011.04
2023-05-01T10:49:10.934Z,1011.10
2023-05-01T10:50:10.944Z,1011.01
2023-05-01T10:51:10.906Z,1010.98
2023-05-01T10:52:10.906Z,1010.98
2023-05-01T10:53:10.880Z,1010.94
2023-05-01T10:54:10.857Z,1010.90
2023-05-01T10:55:10.854Z,1010.89
2023-05-01T10:56:10.839Z,1010.87
2023-05-01T10:57:10.828Z,1010.91
2023-05-01T10:58:10.827Z,1010.85
2023-05-01T10:59:10.910Z,1010.88
2023-05-01T11:00:10.815Z,1010.86
2023-05-01T11:01:10.777Z,1010.83
2023-05-01T11:02:10.804Z,1010.83
2023-05-01T11:03:10.768Z,1010.80
2023-05-01T11:04:10.740Z,1010.78
2023-05-01T11:05:10.786Z,1010.74
2023-05-01T11:06:10.799Z,1010.73
2023-05-01T11:07:10.906Z,1010.68
2023-05-01T11:08:10.692Z,1010.71
2023-05-01T11:09:10.677Z,1010.68
2023-05-01T11:10:10.673Z,1010.62
2023-05-01T11:11:10.660Z,1010.57
2023-05-01T11:12:10.638Z,1010.56
2023-05-01T11:13:10.613Z,1010.56
2023-05-01T11:14:10.605Z,1010.60
2023-05-01T11:15:10.609Z,1010.61
2023-05-01T11:16:10.691Z,1010.55
2023-05-01T11:17:10.561Z,1010.56
2023-05-01T11:18:10.570Z,1010.49
2023-05-01T11:19:10.531Z,1010.44
2023-05-01T11:20:10.541Z,1010.45
2023-05-01T11:21:10.534Z,1010.41
2023-05-01T11:22:10.492Z,1010.37
2023-05-01T11:23:10.477Z,1010.39
2023-05-01T11:24:10.473Z,1010.40
2023-05-01T11:25:10.458Z,1010.38
2023-05-01T11:26:10.493Z,1010.39
2023-05-01T11:27:10.420Z,1010.38
2023-05-01T11:28:10.417Z,1010.31
2023-05-01T11:29:10.395Z,1010.34
2023-05-01T11:30:10.389Z,1010.33
2023-05-01T11:31:10.387Z,1010.36
2023-05-01T11:32:10.511Z,1010.32
2023-05-01T11:33:11.133Z,1010.29
2023-05-01T11:34:10.341Z,1010.30
2023-05-01T11:35:10.336Z,1010.22
2023-05-01T11:36:10.480Z,1010.15
2023-05-01T11:37:10.309Z,1010.20
2023-05-01T11:38:10.305Z,1010.18
2023-05-01T11:39:10.284Z,1010.14
2023-05-01T11:40:10.297Z,1010.16
2023-05-01T11:41:10.250Z,1010.06
2023-05-01T11:42:10.364Z,1010.07
2023-05-01T11:43:10.216Z,1010.09
2023-05-01T11:44:10.236Z,1010.05
2023-05-01T11:45:10.197Z,1010.06
2023-05-01T11:46:10.210Z,1010.05
2023-05-01T11:47:10.177Z,1010.02
2023-05-01T11:48:10.200Z,1010.01
2023-05-01T11:49:10.147Z,1010.02
2023-05-01T11:50:10.302Z,1010.01
2023-05-01T11:51:10.119Z,1009.96
2023-05-01T11:52:10.109Z,1009.98
2023-05-01T11:53:10.073Z,1009.93
2023-05-01T11:54:10.094Z,1009.92
2023-05-01T11:55:10.061Z,1009.80
2023-05-01T11:56:19.541Z,1009.75
2023-05-01T11:57:11.039Z,1009.77
2023-05-01T11:58:10.054Z,1009.81
2023-05-01T11:59:10.028Z,1009.78
2023-05-01T12:00:10.169Z,1009.78
2023-05-01T12:01:09.999Z,1009.78
2023-05-01T12:02:09.999Z,1009.76
2023-05-01T12:03:10.095Z,1009.74
2023-05-01T12:04:10.048Z,1009.73
2023-05-01T12:05:09.988Z,1009.72
2023-05-01T12:06:09.966Z,1009.74